Time;durP1;ratioP1;P1;durP2;ratioP2;P2;SDS_P1;SDS_P2;PMS_P1;PMS_P2;Temp;Humidity;BMP_temperature;BMP_pressure;BME280_temperature;BME280_humidity;BME280_pressure;Samples;Min_cycle;Max_cycle;Signal;HPM_P1;HPM_P2
2022/10/13 00:01:15;;;;;;;;;;;8.30;99.90;;;;;;5095818;28;19908;-75
2022/10/13 00:03:41;;;;;;;;;;;8.10;99.90;;;;;;5095361;28;19912;-74
2022/10/13 00:06:08;;;;;;;;;;;8.20;99.90;;;;;;5095802;28;19997;-75
2022/10/13 00:08:34;;;;;;;;;;;8.10;99.90;;;;;;5095891;28;19922;-75
2022/10/13 00:11:00;;;;;;;;;;;8.10;99.90;;;;;;5095267;28;20537;-75
2022/10/13 00:13:26;;;;;;;;;;;8.10;99.90;;;;;;5095439;28;19927;-75
2022/10/13 00:15:51;;;;;;;;;;;8.00;99.90;;;;;;5092958;28;19924;-76
2022/10/13 00:18:17;;;;;;;;;;;7.90;99.90;;;;;;5094511;28;19908;-74
2022/10/13 00:20:47;;;;;;;;;;;7.90;99.90;;;;;;5095062;28;19912;-75
2022/10/13 00:23:13;;;;;;;;;;;7.90;99.90;;;;;;5095550;28;19908;-75
2022/10/13 00:25:56;;;;;;;;;;;7.80;99.90;;;;;;5095903;28;19914;-76
2022/10/13 00:28:22;;;;;;;;;;;7.90;99.90;;;;;;5095564;28;19965;-75
2022/10/13 00:30:47;;;;;;;;;;;7.90;99.90;;;;;;5094710;28;19938;-75
2022/10/13 00:33:13;;;;;;;;;;;7.80;99.90;;;;;;5095344;28;19912;-75
2022/10/13 00:35:39;;;;;;;;;;;7.80;99.90;;;;;;5095324;28;19927;-74
2022/10/13 00:38:05;;;;;;;;;;;7.80;99.90;;;;;;5094786;28;19919;-75
2022/10/13 00:40:30;;;;;;;;;;;7.70;99.90;;;;;;5095024;28;19912;-76
2022/10/13 00:42:56;;;;;;;;;;;7.70;99.90;;;;;;5094441;28;19920;-75
2022/10/13 00:45:23;;;;;;;;;;;7.70;99.90;;;;;;5094829;28;19924;-75
2022/10/13 00:47:51;;;;;;;;;;;7.80;99.90;;;;;;5093982;28;20353;-75
2022/10/13 00:50:20;;;;;;;;;;;7.70;99.90;;;;;;5095069;28;19909;-75
2022/10/13 00:52:46;;;;;;;;;;;7.60;99.90;;;;;;5094218;28;20284;-75
2022/10/13 00:55:14;;;;;;;;;;;7.60;99.90;;;;;;5093589;28;20030;-75
2022/10/13 00:57:42;;;;;;;;;;;7.60;99.90;;;;;;5094873;28;19908;-76
2022/10/13 01:00:08;;;;;;;;;;;7.60;99.90;;;;;;5094613;28;19915;-74
2022/10/13 01:02:34;;;;;;;;;;;7.60;99.90;;;;;;5094946;28;19912;-75
2022/10/13 01:05:02;;;;;;;;;;;7.60;99.90;;;;;;5092805;28;20015;-76
2022/10/13 01:07:28;;;;;;;;;;;7.60;99.90;;;;;;5094640;28;19908;-75
2022/10/13 01:09:54;;;;;;;;;;;7.50;99.90;;;;;;5094129;28;20246;-74
2022/10/13 01:12:28;;;;;;;;;;;7.50;99.90;;;;;;5094566;28;19934;-75
2022/10/13 01:15:05;;;;;;;;;;;7.50;99.90;;;;;;5092671;28;19912;-75
2022/10/13 01:17:36;;;;;;;;;;;7.50;99.90;;;;;;5094626;28;19916;-75
2022/10/13 01:20:03;;;;;;;;;;;7.50;99.90;;;;;;5092561;28;20049;-75
2022/10/13 01:22:43;;;;;;;;;;;7.50;99.90;;;;;;5094409;28;19908;-76
2022/10/13 01:25:24;;;;;;;;;;;7.50;99.90;;;;;;5094050;28;19961;-76
2022/10/13 01:28:07;;;;;;;;;;;7.50;99.90;;;;;;5093780;28;19915;-75
2022/10/13 01:30:35;;;;;;;;;;;7.50;99.90;;;;;;5093168;28;19912;-75
2022/10/13 01:33:12;;;;;;;;;;;7.50;99.90;;;;;;5093353;28;19908;-75
2022/10/13 01:35:44;;;;;;;;;;;7.40;99.90;;;;;;5094817;28;20360;-76
2022/10/13 01:38:12;;;;;;;;;;;7.30;99.90;;;;;;5093900;28;19916;-75
2022/10/13 01:40:49;;;;;;;;;;;7.20;99.90;;;;;;5093815;28;19912;-75
2022/10/13 01:43:27;;;;;;;;;;;7.10;99.90;;;;;;5093014;28;19915;-75
2022/10/13 01:45:56;;;;;;;;;;;7.10;99.90;;;;;;5093564;28;19920;-74
2022/10/13 01:48:23;;;;;;;;;;;7.10;99.90;;;;;;5092295;28;19912;-75
2022/10/13 01:50:49;;;;;;;;;;;7.10;99.90;;;;;;5093285;28;19991;-75
2022/10/13 01:53:16;;;;;;;;;;;7.10;99.90;;;;;;5094096;28;19919;-75
2022/10/13 01:55:49;;;;;;;;;;;7.10;99.90;;;;;;5092528;28;19912;-75
2022/10/13 01:58:15;;;;;;;;;;;7.10;99.90;;;;;;5093531;28;20321;-75
2022/10/13 02:00:43;;;;;;;;;;;7.10;99.90;;;;;;5093845;28;20091;-76
2022/10/13 02:03:16;;;;;;;;;;;7.00;99.90;;;;;;5093211;28;19908;-75
2022/10/13 02:06:00;;;;;;;;;;;7.00;99.90;;;;;;5093730;28;19912;-74
2022/10/13 02:08:28;;;;;;;;;;;6.90;99.90;;;;;;5093681;28;19908;-75
2022/10/13 02:11:06;;;;;;;;;;;7.00;99.90;;;;;;5092982;28;19953;-75
2022/10/13 02:13:33;;;;;;;;;;;6.90;99.90;;;;;;5092023;28;19919;-76
2022/10/13 02:15:59;;;;;;;;;;;6.80;99.90;;;;;;5093222;28;19923;-75
2022/10/13 02:18:27;;;;;;;;;;;6.70;99.90;;;;;;5093155;28;19908;-75
2022/10/13 02:20:53;;;;;;;;;;;6.80;99.90;;;;;;5092746;28;19908;-73
2022/10/13 02:23:19;;;;;;;;;;;6.80;99.90;;;;;;5093162;28;19908;-75
2022/10/13 02:25:46;;;;;;;;;;;6.70;99.90;;;;;;5093258;28;19970;-75
2022/10/13 02:28:13;;;;;;;;;;;6.70;99.90;;;;;;5092505;28;19919;-75
2022/10/13 02:30:39;;;;;;;;;;;6.70;99.90;;;;;;5093331;28;20361;-75
2022/10/13 02:33:05;;;;;;;;;;;6.70;99.90;;;;;;5092631;28;20027;-75
2022/10/13 02:35:31;;;;;;;;;;;6.70;99.90;;;;;;5093478;28;19959;-76
2022/10/13 02:37:57;;;;;;;;;;;6.70;99.90;;;;;;5092375;28;20421;-74
2022/10/13 02:40:23;;;;;;;;;;;6.70;99.90;;;;;;5091641;28;19951;-75
2022/10/13 02:42:49;;;;;;;;;;;6.60;99.90;;;;;;5091612;28;19912;-75
2022/10/13 02:45:14;;;;;;;;;;;6.70;99.90;;;;;;5092348;28;19942;-75
2022/10/13 02:47:40;;;;;;;;;;;6.80;99.90;;;;;;5093100;28;19909;-76
2022/10/13 02:50:06;;;;;;;;;;;6.70;99.90;;;;;;5092394;28;19912;-75
2022/10/13 02:52:31;;;;;;;;;;;6.70;99.90;;;;;;5091492;28;20297;-76
2022/10/13 02:54:57;;;;;;;;;;;6.60;99.90;;;;;;5091051;28;19995;-75
2022/10/13 02:57:22;;;;;;;;;;;6.70;99.90;;;;;;5091771;28;19919;-75
2022/10/13 02:59:48;;;;;;;;;;;6.60;99.90;;;;;;5091850;28;19915;-76
2022/10/13 03:02:14;;;;;;;;;;;6.60;99.90;;;;;;5092369;28;19908;-75
2022/10/13 03:04:39;;;;;;;;;;;6.60;99.90;;;;;;5092972;28;19908;-76
2022/10/13 03:07:05;;;;;;;;;;;6.60;99.90;;;;;;5091984;28;19999;-75
2022/10/13 03:09:31;;;;;;;;;;;6.50;99.90;;;;;;5092930;28;19912;-76
2022/10/13 03:11:56;;;;;;;;;;;6.50;99.90;;;;;;5092273;28;20455;-75
2022/10/13 03:14:22;;;;;;;;;;;6.30;99.90;;;;;;5092790;28;19927;-76
2022/10/13 03:16:47;;;;;;;;;;;6.30;99.90;;;;;;5092860;28;19938;-75
2022/10/13 03:19:13;;;;;;;;;;;6.30;99.90;;;;;;5091870;28;20092;-75
2022/10/13 03:21:38;;;;;;;;;;;6.30;99.90;;;;;;5092587;28;19908;-75
2022/10/13 03:24:04;;;;;;;;;;;6.20;99.90;;;;;;5092180;28;19909;-76
2022/10/13 03:26:31;;;;;;;;;;;6.20;99.90;;;;;;5092743;28;19915;-76
2022/10/13 03:28:56;;;;;;;;;;;6.30;99.90;;;;;;5092177;28;19915;-75
2022/10/13 03:31:22;;;;;;;;;;;6.20;99.90;;;;;;5092595;28;19908;-75
2022/10/13 03:33:48;;;;;;;;;;;6.30;99.90;;;;;;5092326;28;19916;-76
2022/10/13 03:36:14;;;;;;;;;;;6.20;99.90;;;;;;5091844;28;19978;-75
2022/10/13 03:38:39;;;;;;;;;;;6.30;99.90;;;;;;5092589;28;19938;-75
2022/10/13 03:41:06;;;;;;;;;;;6.30;99.90;;;;;;5092357;28;19965;-76
2022/10/13 03:43:32;;;;;;;;;;;6.20;99.90;;;;;;5092403;28;19927;-75
2022/10/13 03:45:59;;;;;;;;;;;6.10;99.90;;;;;;5091815;28;19908;-75
2022/10/13 03:48:25;;;;;;;;;;;6.10;99.90;;;;;;5092434;28;20329;-75
2022/10/13 03:50:51;;;;;;;;;;;6.10;99.90;;;;;;5092427;28;19915;-75
2022/10/13 03:53:16;;;;;;;;;;;6.10;99.90;;;;;;5092424;28;20015;-75
2022/10/13 03:55:47;;;;;;;;;;;6.00;99.90;;;;;;5095072;28;19927;-75
2022/10/13 03:58:12;;;;;;;;;;;5.90;99.90;;;;;;5095599;28;19915;-75
2022/10/13 04:00:38;;;;;;;;;;;5.80;99.90;;;;;;5095636;28;19908;-75
2022/10/13 04:03:03;;;;;;;;;;;5.80;99.90;;;;;;5095473;28;19915;-76
2022/10/13 04:05:32;;;;;;;;;;;5.80;99.90;;;;;;5094592;28;19908;-76
2022/10/13 04:07:58;;;;;;;;;;;5.90;99.90;;;;;;5095238;28;19912;-74
2022/10/13 04:10:23;;;;;;;;;;;5.90;99.90;;;;;;5095903;28;20329;-76
2022/10/13 04:12:49;;;;;;;;;;;5.90;99.90;;;;;;5094489;28;19959;-75
2022/10/13 04:15:14;;;;;;;;;;;6.00;99.90;;;;;;5094924;28;19916;-75
2022/10/13 04:17:40;;;;;;;;;;;6.00;99.90;;;;;;5095737;28;19908;-75
2022/10/13 04:20:06;;;;;;;;;;;6.10;99.90;;;;;;5095150;28;19957;-75
2022/10/13 04:22:31;;;;;;;;;;;6.00;99.90;;;;;;5095177;28;19912;-74
2022/10/13 04:24:57;;;;;;;;;;;6.00;99.90;;;;;;5095615;28;19908;-74
2022/10/13 04:27:22;;;;;;;;;;;6.00;99.90;;;;;;5095036;28;20385;-74
2022/10/13 04:29:48;;;;;;;;;;;6.00;99.90;;;;;;5094238;28;19911;-74
2022/10/13 04:32:14;;;;;;;;;;;6.00;99.90;;;;;;5094922;28;19908;-75
2022/10/13 04:34:39;;;;;;;;;;;6.00;99.90;;;;;;5095289;28;19912;-75
2022/10/13 04:37:05;;;;;;;;;;;5.90;99.90;;;;;;5094739;28;19916;-74
2022/10/13 04:39:30;;;;;;;;;;;5.90;99.90;;;;;;5095223;28;20368;-75
2022/10/13 04:41:56;;;;;;;;;;;5.80;99.90;;;;;;5095263;28;20269;-75
2022/10/13 04:44:21;;;;;;;;;;;5.70;99.90;;;;;;5094615;28;20379;-74
2022/10/13 04:46:49;;;;;;;;;;;5.80;99.90;;;;;;5094498;28;20535;-74
2022/10/13 04:49:15;;;;;;;;;;;5.70;99.90;;;;;;5093154;28;19918;-76
2022/10/13 04:51:40;;;;;;;;;;;5.70;99.90;;;;;;5094856;28;19915;-75
2022/10/13 04:54:06;;;;;;;;;;;5.70;99.90;;;;;;5094253;28;19919;-74
2022/10/13 04:56:32;;;;;;;;;;;5.70;99.90;;;;;;5094890;28;19916;-75
2022/10/13 04:58:58;;;;;;;;;;;5.60;99.90;;;;;;5094611;28;19967;-75
2022/10/13 05:01:24;;;;;;;;;;;5.70;99.90;;;;;;5094403;28;19970;-75
2022/10/13 05:03:50;;;;;;;;;;;5.60;99.90;;;;;;5094773;28;19916;-75
2022/10/13 05:06:17;;;;;;;;;;;5.60;99.90;;;;;;5094242;28;19908;-75
2022/10/13 05:08:43;;;;;;;;;;;5.50;99.90;;;;;;5094832;28;19951;-74
2022/10/13 05:11:08;;;;;;;;;;;5.50;99.90;;;;;;5093834;28;19951;-74
2022/10/13 05:13:34;;;;;;;;;;;5.40;99.90;;;;;;5094707;28;19916;-75
2022/10/13 05:16:04;;;;;;;;;;;5.40;99.90;;;;;;5094011;28;19912;-76
2022/10/13 05:18:30;;;;;;;;;;;5.40;99.90;;;;;;5094731;28;20002;-75
2022/10/13 05:20:55;;;;;;;;;;;5.40;99.90;;;;;;5094486;28;20050;-74
2022/10/13 05:23:21;;;;;;;;;;;5.30;99.90;;;;;;5092419;28;19918;-74
2022/10/13 05:25:46;;;;;;;;;;;5.30;99.90;;;;;;5094199;28;19915;-74
2022/10/13 05:28:12;;;;;;;;;;;5.30;99.90;;;;;;5093742;28;19987;-75
2022/10/13 05:30:38;;;;;;;;;;;5.20;99.90;;;;;;5094029;28;20008;-75
2022/10/13 05:33:03;;;;;;;;;;;5.30;99.90;;;;;;5092256;28;19959;-75
2022/10/13 05:35:29;;;;;;;;;;;5.30;99.90;;;;;;5094245;28;19965;-74
2022/10/13 05:37:55;;;;;;;;;;;5.40;99.90;;;;;;5093880;28;20364;-74
2022/10/13 05:40:20;;;;;;;;;;;5.30;99.90;;;;;;5093040;28;19908;-73
2022/10/13 05:42:47;;;;;;;;;;;5.30;99.90;;;;;;5094216;28;19923;-74
2022/10/13 05:45:13;;;;;;;;;;;5.30;99.90;;;;;;5091692;28;20373;-75
2022/10/13 05:47:39;;;;;;;;;;;5.20;99.90;;;;;;5093665;28;19998;-74
2022/10/13 05:50:04;;;;;;;;;;;5.20;99.90;;;;;;5093278;28;19908;-74
2022/10/13 05:52:31;;;;;;;;;;;5.20;99.90;;;;;;5093532;28;20357;-74
2022/10/13 05:54:59;;;;;;;;;;;5.20;99.90;;;;;;5093677;28;19919;-74
2022/10/13 05:57:27;;;;;;;;;;;5.20;99.90;;;;;;5093173;28;19919;-74
2022/10/13 05:59:58;;;;;;;;;;;5.10;99.90;;;;;;5093708;28;20010;-75
2022/10/13 06:02:26;;;;;;;;;;;5.10;99.90;;;;;;5092748;28;19916;-75
2022/10/13 06:04:54;;;;;;;;;;;5.10;99.90;;;;;;5093412;28;19912;-75
2022/10/13 06:07:20;;;;;;;;;;;5.20;99.90;;;;;;5091724;28;19938;-76
2022/10/13 06:09:47;;;;;;;;;;;5.20;99.90;;;;;;5093675;28;19908;-75
2022/10/13 06:12:12;;;;;;;;;;;5.20;99.90;;;;;;5093379;28;19908;-75
2022/10/13 06:14:38;;;;;;;;;;;5.20;99.90;;;;;;5093426;28;20258;-75
2022/10/13 06:17:03;;;;;;;;;;;5.20;99.90;;;;;;5092852;28;19934;-75
2022/10/13 06:19:29;;;;;;;;;;;5.30;99.90;;;;;;5092835;28;19908;-75
2022/10/13 06:21:55;;;;;;;;;;;5.30;99.90;;;;;;5092899;28;19909;-74
2022/10/13 06:24:20;;;;;;;;;;;5.40;99.90;;;;;;5092525;28;20269;-74
2022/10/13 06:26:46;;;;;;;;;;;5.40;99.90;;;;;;5092937;28;20302;-75
2022/10/13 06:29:11;;;;;;;;;;;5.40;99.90;;;;;;5091385;28;19912;-75
2022/10/13 06:31:37;;;;;;;;;;;5.30;99.90;;;;;;5093457;28;19996;-74
2022/10/13 06:34:02;;;;;;;;;;;5.30;99.90;;;;;;5091821;28;20371;-74
2022/10/13 06:36:28;;;;;;;;;;;5.20;99.90;;;;;;5092464;28;19939;-73
2022/10/13 06:38:53;;;;;;;;;;;5.20;99.90;;;;;;5093049;28;20018;-74
2022/10/13 06:41:19;;;;;;;;;;;5.10;99.90;;;;;;5092172;28;19915;-74
2022/10/13 06:43:45;;;;;;;;;;;5.10;99.90;;;;;;5092928;28;20284;-73
2022/10/13 06:46:11;;;;;;;;;;;5.10;99.90;;;;;;5091736;28;19914;-74
2022/10/13 06:48:36;;;;;;;;;;;5.10;99.90;;;;;;5092275;28;19915;-74
2022/10/13 06:51:03;;;;;;;;;;;5.20;99.90;;;;;;5092725;28;20225;-74
2022/10/13 06:53:28;;;;;;;;;;;5.10;99.90;;;;;;5091496;28;20363;-74
2022/10/13 06:55:57;;;;;;;;;;;5.10;99.90;;;;;;5092706;28;20373;-74
2022/10/13 06:58:23;;;;;;;;;;;5.00;99.90;;;;;;5090577;28;19954;-74
2022/10/13 07:00:48;;;;;;;;;;;5.00;99.90;;;;;;5092326;28;19908;-74
2022/10/13 07:03:14;;;;;;;;;;;5.10;99.90;;;;;;5091971;28;19908;-74
2022/10/13 07:05:39;;;;;;;;;;;5.10;99.90;;;;;;5092666;28;20361;-74
2022/10/13 07:08:05;;;;;;;;;;;5.10;99.90;;;;;;5090643;28;19935;-74
2022/10/13 07:10:31;;;;;;;;;;;5.10;99.90;;;;;;5091973;28;19957;-74
2022/10/13 07:12:56;;;;;;;;;;;5.20;99.90;;;;;;5092383;28;19937;-75
2022/10/13 07:15:23;;;;;;;;;;;5.30;99.90;;;;;;5092036;28;19912;-75
2022/10/13 07:17:52;;;;;;;;;;;5.30;99.90;;;;;;5092248;28;19908;-75
2022/10/13 07:20:19;;;;;;;;;;;5.30;99.90;;;;;;5092079;28;20003;-75
2022/10/13 07:22:44;;;;;;;;;;;5.40;99.90;;;;;;5092622;28;19916;-75
2022/10/13 07:25:10;;;;;;;;;;;5.40;99.90;;;;;;5092126;28;19908;-75
2022/10/13 07:27:37;;;;;;;;;;;5.50;99.90;;;;;;5092446;28;20291;-75
2022/10/13 07:30:03;;;;;;;;;;;5.60;99.90;;;;;;5096364;28;19908;-75
2022/10/13 07:32:30;;;;;;;;;;;5.80;99.90;;;;;;5095791;28;19912;-75
2022/10/13 07:34:55;;;;;;;;;;;5.90;99.90;;;;;;5096407;28;20062;-75
2022/10/13 07:37:21;;;;;;;;;;;6.00;99.90;;;;;;5095788;28;20385;-75
2022/10/13 07:39:46;;;;;;;;;;;6.20;99.90;;;;;;5096111;28;19916;-74
2022/10/13 07:42:12;;;;;;;;;;;6.20;99.90;;;;;;5095930;28;19987;-74
2022/10/13 07:44:37;;;;;;;;;;;6.30;99.90;;;;;;5096295;28;19920;-74
2022/10/13 07:47:03;;;;;;;;;;;6.50;99.90;;;;;;5095867;28;19983;-74
2022/10/13 07:49:29;;;;;;;;;;;6.60;99.90;;;;;;5095378;28;20432;-74
2022/10/13 07:51:54;;;;;;;;;;;6.70;99.90;;;;;;5095984;28;19914;-73
2022/10/13 07:54:20;;;;;;;;;;;6.80;99.90;;;;;;5095182;28;20341;-74
2022/10/13 07:56:45;;;;;;;;;;;6.90;99.90;;;;;;5095739;28;19916;-74
2022/10/13 07:59:11;;;;;;;;;;;7.10;99.90;;;;;;5095533;28;19980;-74
2022/10/13 08:01:37;;;;;;;;;;;7.10;99.90;;;;;;5095827;28;19915;-75
2022/10/13 08:04:02;;;;;;;;;;;7.20;99.90;;;;;;5095633;28;20288;-75
2022/10/13 08:06:28;;;;;;;;;;;7.30;99.90;;;;;;5094544;28;19919;-75
2022/10/13 08:08:54;;;;;;;;;;;7.30;99.90;;;;;;5095108;28;20266;-74
2022/10/13 08:11:19;;;;;;;;;;;7.40;99.90;;;;;;5094279;28;20068;-74
2022/10/13 08:13:46;;;;;;;;;;;7.40;99.90;;;;;;5094843;28;19919;-73
2022/10/13 08:16:12;;;;;;;;;;;7.60;99.90;;;;;;5094533;28;19916;-74
2022/10/13 08:18:38;;;;;;;;;;;7.70;99.90;;;;;;5094804;28;19994;-73
2022/10/13 08:21:03;;;;;;;;;;;7.80;99.90;;;;;;5095616;28;19936;-74
2022/10/13 08:23:29;;;;;;;;;;;7.90;99.90;;;;;;5127929;27;19974;-75
2022/10/13 08:25:55;;;;;;;;;;;7.90;99.90;;;;;;5095254;28;19916;-74
2022/10/13 08:28:22;;;;;;;;;;;8.00;99.90;;;;;;5094851;28;20276;-75
2022/10/13 08:30:47;;;;;;;;;;;8.10;99.90;;;;;;5095433;28;19961;-74
2022/10/13 08:33:13;;;;;;;;;;;8.20;99.90;;;;;;5094914;28;19908;-75
2022/10/13 08:35:39;;;;;;;;;;;8.30;99.90;;;;;;5094557;28;19955;-74
2022/10/13 08:38:05;;;;;;;;;;;8.30;99.90;;;;;;5094885;28;20262;-75
2022/10/13 08:40:30;;;;;;;;;;;8.50;99.90;;;;;;5094259;28;20409;-74
2022/10/13 08:42:56;;;;;;;;;;;8.60;99.90;;;;;;5094892;28;19908;-74
2022/10/13 08:45:27;;;;;;;;;;;8.70;99.90;;;;;;5094024;28;19920;-74
2022/10/13 08:47:57;;;;;;;;;;;8.80;99.90;;;;;;5095027;28;19908;-74
2022/10/13 08:50:24;;;;;;;;;;;8.90;99.90;;;;;;5094417;28;19916;-74
2022/10/13 08:53:08;;;;;;;;;;;9.00;99.90;;;;;;5094827;28;20018;-74
2022/10/13 08:55:36;;;;;;;;;;;9.20;99.90;;;;;;5094455;28;19916;-74
2022/10/13 08:58:05;;;;;;;;;;;9.30;99.90;;;;;;5094780;28;19912;-74
2022/10/13 09:00:31;;;;;;;;;;;9.40;99.90;;;;;;5093984;28;20370;-74
2022/10/13 09:03:03;;;;;;;;;;;9.50;99.90;;;;;;5094463;28;19912;-74
2022/10/13 09:05:40;;;;;;;;;;;9.60;99.90;;;;;;5094214;28;19908;-74
2022/10/13 09:08:10;;;;;;;;;;;9.70;99.90;;;;;;5094823;28;19915;-74
2022/10/13 09:10:44;;;;;;;;;;;9.80;99.90;;;;;;5092877;28;20763;-75
2022/10/13 09:13:10;;;;;;;;;;;9.90;99.90;;;;;;5093324;28;20030;-76
2022/10/13 09:15:45;;;;;;;;;;;9.90;99.90;;;;;;5093735;28;20517;-75
2022/10/13 09:18:12;;;;;;;;;;;10.10;99.90;;;;;;5094081;28;20328;-75
2022/10/13 09:20:38;;;;;;;;;;;10.20;99.90;;;;;;5093620;28;20499;-74
2022/10/13 09:23:13;;;;;;;;;;;10.30;99.90;;;;;;5093906;28;19915;-75
2022/10/13 09:25:40;;;;;;;;;;;10.50;99.90;;;;;;5093031;28;20528;-76
2022/10/13 09:28:35;;;;;;;;;;;10.70;99.90;;;;;;5092417;28;19916;-75
2022/10/13 09:31:04;;;;;;;;;;;10.80;99.90;;;;;;5084641;28;19923;-75
2022/10/13 09:33:33;;;;;;;;;;;11.00;99.90;;;;;;5093037;28;19923;-74
2022/10/13 09:35:58;;;;;;;;;;;11.10;99.90;;;;;;5094495;28;20273;-74
2022/10/13 09:38:25;;;;;;;;;;;11.20;99.90;;;;;;5091965;28;19914;-75
2022/10/13 09:41:03;;;;;;;;;;;11.40;99.90;;;;;;5093987;28;19908;-76
2022/10/13 09:43:42;;;;;;;;;;;11.50;99.90;;;;;;5093233;28;19913;-75
2022/10/13 09:46:31;;;;;;;;;;;11.60;99.90;;;;;;5094164;28;19915;-75
2022/10/13 09:49:03;;;;;;;;;;;11.70;99.90;;;;;;5087543;28;20319;-75
2022/10/13 09:51:31;;;;;;;;;;;11.90;99.90;;;;;;5092640;28;19908;-75
2022/10/13 09:53:57;;;;;;;;;;;11.90;99.90;;;;;;5093666;28;19963;-75
2022/10/13 09:56:29;;;;;;;;;;;12.00;99.90;;;;;;5093016;28;20300;-73
2022/10/13 09:59:04;;;;;;;;;;;12.10;99.90;;;;;;5092362;28;20303;-74
2022/10/13 10:01:33;;;;;;;;;;;12.10;99.90;;;;;;5092925;28;19931;-75
2022/10/13 10:04:00;;;;;;;;;;;12.20;99.90;;;;;;5092326;28;19909;-75
2022/10/13 10:06:25;;;;;;;;;;;12.20;99.90;;;;;;5092830;28;19949;-76
2022/10/13 10:09:21;;;;;;;;;;;12.30;99.90;;;;;;5093676;28;19962;-75
2022/10/13 10:11:48;;;;;;;;;;;12.30;99.90;;;;;;5084048;28;19908;-75
2022/10/13 10:14:20;;;;;;;;;;;12.30;99.90;;;;;;5093521;28;20353;-75
2022/10/13 10:16:50;;;;;;;;;;;12.30;99.90;;;;;;5093137;28;19916;-75
2022/10/13 10:19:25;;;;;;;;;;;12.40;99.90;;;;;;5093378;28;19912;-75
2022/10/13 10:21:57;;;;;;;;;;;12.40;99.90;;;;;;5093273;28;20280;-74
2022/10/13 10:24:41;;;;;;;;;;;12.60;99.90;;;;;;5092919;28;19908;-75
2022/10/13 10:27:07;;;;;;;;;;;12.80;99.90;;;;;;5093287;28;19909;-75
2022/10/13 10:29:39;;;;;;;;;;;12.90;99.90;;;;;;5092608;28;19908;-75
2022/10/13 10:32:07;;;;;;;;;;;13.20;99.90;;;;;;5093443;28;19908;-75
2022/10/13 10:34:33;;;;;;;;;;;13.20;99.90;;;;;;5092285;28;19916;-75
2022/10/13 10:37:01;;;;;;;;;;;13.30;99.90;;;;;;5093094;28;19912;-75
2022/10/13 10:39:35;;;;;;;;;;;13.30;99.90;;;;;;5092468;28;19914;-75
2022/10/13 10:42:17;;;;;;;;;;;13.40;99.90;;;;;;5092978;28;19908;-77
2022/10/13 10:44:46;;;;;;;;;;;13.50;99.90;;;;;;5091045;28;20187;-75
2022/10/13 10:47:18;;;;;;;;;;;13.60;99.90;;;;;;5092707;28;19912;-73
2022/10/13 10:49:44;;;;;;;;;;;13.60;99.90;;;;;;5092815;28;20497;-76
2022/10/13 10:52:26;;;;;;;;;;;13.70;99.90;;;;;;5093092;28;19908;-74
2022/10/13 10:54:52;;;;;;;;;;;13.60;99.90;;;;;;5092762;28;20014;-75
2022/10/13 10:57:26;;;;;;;;;;;13.70;99.90;;;;;;5092994;28;20340;-74
2022/10/13 10:59:51;;;;;;;;;;;13.70;99.90;;;;;;5091471;28;19919;-75
2022/10/13 11:02:34;;;;;;;;;;;13.80;99.90;;;;;;5093716;28;19912;-75
2022/10/13 11:05:00;;;;;;;;;;;13.80;99.90;;;;;;5095788;28;19915;-75
2022/10/13 11:07:29;;;;;;;;;;;13.80;99.90;;;;;;5096614;28;19908;-75
2022/10/13 11:09:56;;;;;;;;;;;13.80;99.90;;;;;;5096972;28;19909;-75
2022/10/13 11:12:21;;;;;;;;;;;13.90;99.90;;;;;;5096807;28;19919;-76
2022/10/13 11:14:53;;;;;;;;;;;13.90;99.90;;;;;;5096053;28;20277;-76
2022/10/13 11:17:27;;;;;;;;;;;14.00;99.90;;;;;;5096942;28;19912;-75
2022/10/13 11:19:53;;;;;;;;;;;14.20;99.90;;;;;;5096599;28;19908;-75
2022/10/13 11:22:20;;;;;;;;;;;14.40;99.90;;;;;;5096485;28;19915;-75
2022/10/13 11:24:50;;;;;;;;;;;14.50;99.90;;;;;;5095779;28;19915;-75
2022/10/13 11:27:15;;;;;;;;;;;14.60;99.90;;;;;;5096707;28;19908;-75
2022/10/13 11:29:56;;;;;;;;;;;14.60;99.90;;;;;;5095774;28;19912;-75
2022/10/13 11:35:05;;;;;;;;;;;14.70;99.90;;;;;;5096507;28;19963;-74
2022/10/13 11:37:37;;;;;;;;;;;14.80;99.90;;;;;;5095967;28;19963;-74
2022/10/13 11:40:21;;;;;;;;;;;14.90;99.90;;;;;;5096542;28;19915;-74
2022/10/13 11:42:54;;;;;;;;;;;15.00;99.90;;;;;;5094472;28;19911;-74
2022/10/13 11:45:25;;;;;;;;;;;15.00;99.90;;;;;;5095973;28;19927;-76
2022/10/13 11:47:57;;;;;;;;;;;15.00;99.90;;;;;;5095627;28;20004;-74
2022/10/13 11:50:31;;;;;;;;;;;15.10;99.90;;;;;;5095919;28;19954;-74
2022/10/13 11:53:10;;;;;;;;;;;15.20;99.90;;;;;;5095860;28;20357;-75
2022/10/13 11:55:52;;;;;;;;;;;15.20;99.90;;;;;;5095573;28;19923;-74
2022/10/13 11:58:23;;;;;;;;;;;15.30;99.90;;;;;;5095808;28;19908;-74
2022/10/13 12:00:52;;;;;;;;;;;15.30;99.90;;;;;;5094091;28;19973;-74
2022/10/13 12:03:28;;;;;;;;;;;15.30;99.90;;;;;;5095058;28;19915;-74
2022/10/13 12:05:56;;;;;;;;;;;15.30;99.90;;;;;;5095454;28;19908;-74
2022/10/13 12:08:22;;;;;;;;;;;15.20;99.90;;;;;;5095518;28;20330;-75
2022/10/13 12:10:51;;;;;;;;;;;15.20;99.90;;;;;;5095135;28;19919;-74
2022/10/13 12:13:24;;;;;;;;;;;15.20;99.90;;;;;;5095102;28;19909;-74
2022/10/13 12:15:58;;;;;;;;;;;15.20;99.90;;;;;;5094764;28;20770;-75
2022/10/13 12:18:32;;;;;;;;;;;15.20;99.90;;;;;;5094820;28;20006;-74
2022/10/13 12:21:03;;;;;;;;;;;15.20;99.90;;;;;;5095248;28;20281;-75
2022/10/13 12:23:30;;;;;;;;;;;15.20;99.90;;;;;;5094682;28;19912;-75
2022/10/13 12:25:57;;;;;;;;;;;15.30;99.90;;;;;;5094932;28;19931;-74
2022/10/13 12:28:24;;;;;;;;;;;15.30;99.90;;;;;;5094454;28;20302;-76
2022/10/13 12:30:57;;;;;;;;;;;15.30;99.90;;;;;;5094413;28;19904;-75
2022/10/13 12:33:34;;;;;;;;;;;15.30;99.90;;;;;;5095116;28;19915;-75
2022/10/13 12:36:11;;;;;;;;;;;15.30;99.90;;;;;;5094989;28;19920;-75
2022/10/13 12:38:38;;;;;;;;;;;15.30;99.90;;;;;;5093925;28;19909;-74
2022/10/13 12:41:03;;;;;;;;;;;15.30;99.90;;;;;;5093367;28;19915;-74
2022/10/13 12:43:29;;;;;;;;;;;15.30;99.90;;;;;;5094387;28;19942;-75
2022/10/13 12:45:55;;;;;;;;;;;15.30;99.90;;;;;;5093603;28;20361;-75
2022/10/13 12:48:31;;;;;;;;;;;15.30;99.90;;;;;;5095373;28;19930;-75
2022/10/13 12:51:14;;;;;;;;;;;15.30;99.90;;;;;;5094633;28;19908;-75
2022/10/13 12:53:39;;;;;;;;;;;15.30;99.90;;;;;;5094270;28;19919;-75
2022/10/13 12:56:06;;;;;;;;;;;15.30;99.90;;;;;;5094966;28;19916;-74
2022/10/13 12:58:33;;;;;;;;;;;15.30;99.90;;;;;;5094275;28;19916;-74
2022/10/13 13:00:58;;;;;;;;;;;15.30;99.90;;;;;;5094484;28;20392;-75
2022/10/13 13:03:26;;;;;;;;;;;15.30;99.90;;;;;;5094477;28;19908;-75
2022/10/13 13:06:06;;;;;;;;;;;15.30;99.90;;;;;;5094075;28;20475;-75
2022/10/13 13:08:31;;;;;;;;;;;15.30;99.90;;;;;;5094152;28;19944;-75
2022/10/13 13:11:01;;;;;;;;;;;15.30;99.90;;;;;;5094136;28;19959;-75
2022/10/13 13:13:28;;;;;;;;;;;15.50;99.90;;;;;;5094366;28;20002;-74
2022/10/13 13:16:11;;;;;;;;;;;15.50;99.90;;;;;;5092624;28;19919;-74
2022/10/13 13:18:38;;;;;;;;;;;15.50;99.90;;;;;;5093974;28;19995;-74
2022/10/13 13:21:05;;;;;;;;;;;15.60;99.90;;;;;;5094142;28;20265;-74
2022/10/13 13:23:33;;;;;;;;;;;15.70;99.90;;;;;;5094000;28;20030;-74
2022/10/13 13:26:00;;;;;;;;;;;15.90;99.90;;;;;;5093255;28;19908;-74
2022/10/13 13:28:30;;;;;;;;;;;15.80;99.90;;;;;;5094472;28;19999;-74
2022/10/13 13:30:56;;;;;;;;;;;15.90;99.90;;;;;;5092358;28;20014;-75
2022/10/13 13:33:21;;;;;;;;;;;15.90;99.90;;;;;;5093933;28;19912;-74
2022/10/13 13:35:47;;;;;;;;;;;15.90;99.90;;;;;;5093939;28;20422;-75
2022/10/13 13:38:13;;;;;;;;;;;15.90;99.90;;;;;;5094038;28;19939;-74
2022/10/13 13:40:39;;;;;;;;;;;15.90;99.90;;;;;;5093350;28;20373;-74
2022/10/13 13:43:04;;;;;;;;;;;16.00;99.90;;;;;;5092725;28;20350;-75
2022/10/13 13:45:30;;;;;;;;;;;16.00;99.90;;;;;;5093458;28;19959;-74
2022/10/13 13:47:55;;;;;;;;;;;16.00;99.90;;;;;;5092743;28;20273;-75
2022/10/13 13:50:25;;;;;;;;;;;16.10;99.90;;;;;;5092930;28;19912;-74
2022/10/13 13:52:51;;;;;;;;;;;16.10;99.90;;;;;;5092623;28;19915;-74
2022/10/13 13:55:17;;;;;;;;;;;16.10;99.90;;;;;;5093122;28;19912;-74
2022/10/13 13:57:43;;;;;;;;;;;16.10;99.90;;;;;;5092778;28;19924;-75
2022/10/13 14:00:12;;;;;;;;;;;16.20;99.90;;;;;;5092809;28;19908;-74
2022/10/13 14:02:37;;;;;;;;;;;16.20;99.90;;;;;;5092327;28;19915;-74
2022/10/13 14:05:03;;;;;;;;;;;16.20;99.90;;;;;;5093085;28;19912;-75
2022/10/13 14:07:29;;;;;;;;;;;16.30;99.90;;;;;;5093005;28;20007;-74
2022/10/13 14:09:55;;;;;;;;;;;16.30;99.90;;;;;;5092203;28;19912;-75
2022/10/13 14:12:21;;;;;;;;;;;16.40;99.90;;;;;;5093141;28;19908;-75
2022/10/13 14:14:46;;;;;;;;;;;16.30;99.90;;;;;;5091071;28;19952;-76
2022/10/13 14:17:12;;;;;;;;;;;16.50;99.90;;;;;;5093064;28;19912;-76
2022/10/13 14:19:37;;;;;;;;;;;16.40;99.90;;;;;;5092247;28;19911;-73
2022/10/13 14:22:03;;;;;;;;;;;16.50;99.90;;;;;;5092914;28;20254;-74
2022/10/13 14:24:29;;;;;;;;;;;16.40;99.90;;;;;;5092548;28;19915;-74
2022/10/13 14:26:55;;;;;;;;;;;16.40;99.90;;;;;;5091759;28;19915;-74
2022/10/13 14:29:21;;;;;;;;;;;16.40;99.90;;;;;;5092652;28;20321;-75
2022/10/13 14:31:46;;;;;;;;;;;16.40;99.90;;;;;;5091934;28;19952;-75
2022/10/13 14:34:12;;;;;;;;;;;16.40;99.90;;;;;;5092395;28;19916;-74